Time;durP1;ratioP1;P1;durP2;ratioP2;P2;SDS_P1;SDS_P2;PMS_P1;PMS_P2;Temp;Humidity;BMP_temperature;BMP_pressure;BME280_temperature;BME280_humidity;BME280_pressure;Samples;Min_cycle;Max_cycle;Signal;HPM_P1;HPM_P2
2023/03/24 00:03:01;;;;;;;4.32;1.50;;;;;;;19.53;41.47;99786.63;16138227;19;129240;-40
2023/03/24 00:08:23;;;;;;;3.88;1.08;;;;;;;19.50;41.22;99786.38;16140304;19;131349;-41
2023/03/24 00:13:48;;;;;;;3.40;0.80;;;;;;;19.48;41.19;99783.88;16137029;19;129784;-41
2023/03/24 00:19:14;;;;;;;6.53;1.40;;;;;;;19.46;41.48;99771.38;16123912;19;129779;-41
2023/03/24 00:24:36;;;;;;;3.90;1.08;;;;;;;19.44;41.03;99757.00;16121239;19;130027;-42
2023/03/24 00:29:58;;;;;;;1.30;0.70;;;;;;;19.42;41.22;99750.88;16126481;19;129821;-45
2023/03/24 00:35:20;;;;;;;4.70;1.27;;;;;;;19.40;41.02;99753.09;16123741;19;129542;-40
2023/03/24 00:40:47;;;;;;;3.97;1.40;;;;;;;19.38;41.36;99745.88;16122757;19;129612;-40
2023/03/24 00:46:12;;;;;;;2.53;1.00;;;;;;;19.33;41.42;99734.78;16120325;19;129301;-41
2023/03/24 00:51:37;;;;;;;3.00;1.13;;;;;;;19.32;41.09;99732.31;16125346;19;129971;-44
2023/03/24 00:57:01;;;;;;;1.25;0.80;;;;;;;19.31;41.05;99728.72;16119303;19;130170;-41
2023/03/24 01:02:26;;;;;;;1.80;1.00;;;;;;;19.30;41.07;99723.44;16120006;19;129861;-41
2023/03/24 01:07:52;;;;;;;3.47;1.00;;;;;;;19.27;41.49;99710.97;16116484;19;130665;-40
2023/03/24 01:13:27;;;;;;;2.20;1.15;;;;;;;19.26;41.48;99703.75;16119705;19;133427;-41
2023/03/24 01:18:49;;;;;;;2.63;1.15;;;;;;;19.24;41.38;99700.44;16120821;19;130088;-40
2023/03/24 01:24:12;;;;;;;3.30;1.10;;;;;;;19.22;41.11;99702.66;16117856;19;131417;-48
2023/03/24 01:29:34;;;;;;;2.53;1.00;;;;;;;19.21;41.47;99689.91;16113989;19;130488;-41
2023/03/24 01:34:56;;;;;;;2.38;1.10;;;;;;;19.20;41.55;99693.78;16112056;19;131252;-40
2023/03/24 01:40:22;;;;;;;2.42;1.02;;;;;;;19.19;41.26;99684.63;16111609;19;130776;-42
2023/03/24 01:45:56;;;;;;;1.83;1.00;;;;;;;19.19;41.38;99686.56;16107016;19;130157;-42
2023/03/24 01:51:24;;;;;;;2.10;0.90;;;;;;;19.16;41.49;99684.34;16109558;19;129478;-42
2023/03/24 01:56:51;;;;;;;2.15;1.00;;;;;;;19.16;41.34;99698.22;16112132;19;130179;-42
2023/03/24 02:02:14;;;;;;;1.73;0.95;;;;;;;19.13;41.36;99684.91;16117406;19;131004;-41
2023/03/24 02:08:06;;;;;;;2.55;0.80;;;;;;;19.12;41.09;99699.88;16115937;19;129258;-43
2023/03/24 02:13:28;;;;;;;1.40;0.70;;;;;;;19.10;41.19;99707.63;16107817;19;130863;-43
2023/03/24 02:19:14;;;;;;;1.67;1.00;;;;;;;19.11;41.26;99689.88;16112792;19;130320;-40
2023/03/24 02:24:47;;;;;;;1.77;0.90;;;;;;;19.08;41.52;99686.56;16114955;19;131142;-42
2023/03/24 02:30:15;;;;;;;1.27;0.90;;;;;;;19.06;41.33;99737.84;16116484;19;129626;-43
2023/03/24 02:36:09;;;;;;;2.30;1.13;;;;;;;19.07;41.31;99745.06;16112733;19;131678;-40
2023/03/24 02:41:54;;;;;;;1.65;0.80;;;;;;;19.04;41.63;99771.41;16110312;19;129377;-42
2023/03/24 02:47:38;;;;;;;1.50;0.82;;;;;;;19.03;41.40;99783.59;16115172;19;131847;-41
2023/03/24 02:53:06;;;;;;;1.15;0.75;;;;;;;19.03;41.15;99785.53;16115393;19;130718;-40
2023/03/24 02:58:51;;;;;;;1.60;0.85;;;;;;;19.03;41.61;99800.22;16114267;19;130368;-41
2023/03/24 03:04:22;;;;;;;1.85;0.80;;;;;;;19.00;41.24;99789.69;16115074;19;129665;-43
2023/03/24 03:10:01;;;;;;;1.83;0.70;;;;;;;19.00;41.66;99817.41;16113087;19;130853;-42
2023/03/24 03:15:36;;;;;;;1.25;0.70;;;;;;;19.00;41.34;99847.06;16111906;19;129854;-40
2023/03/24 03:21:05;;;;;;;1.25;0.80;;;;;;;18.97;41.63;99867.84;16110033;19;129944;-43
2023/03/24 03:26:31;;;;;;;0.88;0.73;;;;;;;18.95;41.31;99889.47;16110873;19;129485;-41
2023/03/24 03:32:06;;;;;;;1.70;0.70;;;;;;;18.97;41.17;99891.97;16109874;19;130665;-40
2023/03/24 03:38:07;;;;;;;2.65;1.00;;;;;;;18.94;41.57;99904.44;16105090;19;130975;-40
2023/03/24 03:43:30;;;;;;;2.97;0.85;;;;;;;;;;16111108;19;129603;-41
2023/03/24 03:48:52;;;;;;;2.10;0.75;;;;;;;18.89;41.35;99905.22;16108894;19;129007;-40
2023/03/24 03:54:16;;;;;;;1.65;0.90;;;;;;;18.88;41.35;99905.53;16119662;19;130723;-41
2023/03/24 03:59:39;;;;;;;1.70;0.82;;;;;;;18.87;41.21;99923.25;16118270;19;130042;-40
2023/03/24 04:05:27;;;;;;;1.98;0.93;;;;;;;18.88;41.51;99938.78;16121187;19;130940;-40
2023/03/24 04:10:54;;;;;;;3.25;1.00;;;;;;;18.86;41.51;99946.53;16121627;19;129664;-42
2023/03/24 04:16:19;;;;;;;0.93;0.50;;;;;;;18.86;41.14;99957.59;16120361;19;130158;-45
2023/03/24 04:21:51;;;;;;;2.28;0.80;;;;;;;18.84;41.31;99973.66;16120297;19;129375;-41
2023/03/24 04:27:20;;;;;;;1.55;0.85;;;;;;;18.83;41.29;99989.47;16120677;19;131105;-41
2023/03/24 04:32:57;;;;;;;1.60;0.98;;;;;;;18.82;41.47;99993.34;16121531;19;131135;-42
2023/03/24 04:38:24;;;;;;;2.53;0.70;;;;;;;18.80;41.41;99984.47;16123577;19;129637;-41
2023/03/24 04:43:47;;;;;;;3.20;0.82;;;;;;;18.77;41.09;99988.63;16118545;19;129836;-43
2023/03/24 04:49:09;;;;;;;4.25;0.80;;;;;;;18.79;41.51;100001.38;16118285;19;129499;-42
2023/03/24 04:54:32;;;;;;;2.15;0.65;;;;;;;18.77;41.50;99998.84;16119766;19;130233;-40
2023/03/24 04:59:54;;;;;;;1.05;0.65;;;;;;;18.77;41.38;100012.72;16119664;19;130289;-41
2023/03/24 05:05:16;;;;;;;1.58;0.75;;;;;;;18.75;40.99;100003.84;16118366;19;129752;-42
2023/03/24 05:10:38;;;;;;;2.35;0.70;;;;;;;18.74;41.44;100019.63;16120271;19;131036;-40
2023/03/24 05:16:00;;;;;;;1.83;0.93;;;;;;;18.73;41.31;100039.31;16118832;19;130846;-44
2023/03/24 05:21:22;;;;;;;2.30;0.80;;;;;;;18.71;41.31;100045.09;16118649;19;131095;-41
2023/03/24 05:26:44;;;;;;;4.60;1.13;;;;;;;18.71;40.95;100042.31;16118100;19;131369;-41
2023/03/24 05:32:05;;;;;;;3.00;0.70;;;;;;;18.70;40.96;100049.00;16121152;19;130518;-44
2023/03/24 05:37:27;;;;;;;1.48;0.70;;;;;;;18.69;41.14;100052.03;16117596;19;129425;-41
2023/03/24 05:42:50;;;;;;;1.65;0.52;;;;;;;18.68;41.03;100048.44;16114152;19;131223;-41
2023/03/24 05:48:12;;;;;;;5.25;0.95;;;;;;;18.66;41.15;100060.84;16113375;19;131396;-41
2023/03/24 05:53:34;;;;;;;3.35;0.75;;;;;;;18.65;41.15;100065.56;16114247;19;129121;-42
2023/03/24 05:58:56;;;;;;;1.95;0.80;;;;;;;18.65;41.29;100073.03;16114639;19;129691;-41
2023/03/24 06:04:19;;;;;;;2.63;0.90;;;;;;;18.64;41.07;100077.75;16118250;19;131428;-41
2023/03/24 06:09:45;;;;;;;1.70;0.65;;;;;;;18.69;41.12;100088.88;16112288;19;129963;-41
2023/03/24 06:15:08;;;;;;;11.25;1.20;;;;;;;18.90;40.70;100091.78;16113044;19;130085;-48
2023/03/24 06:20:30;;;;;;;22.50;1.67;;;;;;;19.10;39.93;100102.13;16113012;19;129795;-48
2023/03/24 06:25:54;;;;;;;24.63;1.30;;;;;;;19.26;39.94;100091.97;16106752;19;130232;-46
2023/03/24 06:31:18;;;;;;;11.18;1.83;;;;;;;19.33;39.60;100103.63;16112198;19;134343;-41
2023/03/24 06:36:41;;;;;;;9.33;2.00;;;;;;;19.38;39.69;100106.44;16110805;19;129818;-44
2023/03/24 06:42:03;;;;;;;12.13;1.77;;;;;;;19.45;39.24;100103.41;16104132;19;130483;-40
2023/03/24 06:47:25;;;;;;;24.10;1.98;;;;;;;19.51;39.22;100101.50;16108738;19;130466;-42
2023/03/24 06:52:47;;;;;;;12.00;1.52;;;;;;;19.52;38.85;100103.16;16112215;19;129878;-51
2023/03/24 06:58:09;;;;;;;17.13;1.70;;;;;;;19.55;38.97;100116.50;16107767;19;129947;-41
2023/03/24 07:03:31;;;;;;;14.15;2.15;;;;;;;19.58;38.75;100099.28;16107276;19;130131;-41
2023/03/24 07:08:53;;;;;;;11.40;1.70;;;;;;;19.63;38.54;100107.63;16113017;19;129671;-41
2023/03/24 07:14:14;;;;;;;12.73;1.60;;;;;;;19.67;38.30;100121.78;16111465;19;133704;-44
2023/03/24 07:19:37;;;;;;;8.38;1.52;;;;;;;19.72;38.74;100134.84;16111705;19;130985;-46
2023/03/24 07:25:03;;;;;;;14.48;2.10;;;;;;;19.74;38.45;100143.72;16116428;19;129558;-42
2023/03/24 07:30:25;;;;;;;8.98;1.95;;;;;;;19.74;38.41;100144.59;16130476;19;130094;-41
2023/03/24 07:36:00;;;;;;;9.73;1.63;;;;;;;19.73;38.32;100145.69;16128819;19;134338;-49
2023/03/24 07:41:23;;;;;;;11.80;2.05;;;;;;;19.72;38.45;100149.56;16128713;19;129974;-42
2023/03/24 07:46:45;;;;;;;18.50;2.10;;;;;;;19.77;37.91;100163.44;16127113;19;130999;-45
2023/03/24 07:52:06;;;;;;;13.60;2.15;;;;;;;19.86;38.18;100160.97;16127283;19;130362;-42
2023/03/24 07:57:28;;;;;;;11.80;1.88;;;;;;;19.86;37.65;100155.44;16125287;19;129642;-47
2023/03/24 08:02:53;;;;;;;17.30;2.30;;;;;;;19.83;37.70;100169.84;16127303;19;130809;-48
2023/03/24 08:08:15;;;;;;;11.35;2.28;;;;;;;19.79;37.75;100165.97;16125644;19;130355;-48
2023/03/24 08:13:37;;;;;;;14.77;1.85;;;;;;;19.75;37.71;100175.94;16125399;19;129658;-43
2023/03/24 08:18:59;;;;;;;10.55;2.42;;;;;;;19.78;37.82;100175.41;16126856;19;129582;-41
2023/03/24 08:24:21;;;;;;;12.07;2.10;;;;;;;19.79;37.96;100188.16;16124789;19;129492;-43
2023/03/24 08:29:43;;;;;;;10.45;1.90;;;;;;;19.73;37.72;100192.00;16119675;19;130195;-47
2023/03/24 08:35:05;;;;;;;10.82;1.95;;;;;;;19.67;37.64;100183.69;16122074;19;131397;-48
2023/03/24 08:40:28;;;;;;;9.70;1.88;;;;;;;19.65;38.19;100193.38;16124441;19;130362;-52
2023/03/24 08:45:50;;;;;;;8.48;1.55;;;;;;;19.64;37.90;100202.78;16121601;19;129400;-48
2023/03/24 08:51:15;;;;;;;7.38;1.67;;;;;;;19.57;38.04;100205.00;16119905;19;129718;-49
2023/03/24 08:56:37;;;;;;;15.63;2.30;;;;;;;19.50;38.05;100210.78;16122315;19;130877;-48
2023/03/24 09:01:59;;;;;;;13.25;1.70;;;;;;;19.47;38.11;100217.72;16121584;19;129489;-52
2023/03/24 09:07:21;;;;;;;9.15;1.80;;;;;;;19.46;38.02;100210.50;16120472;19;130197;-45
2023/03/24 09:12:45;;;;;;;12.52;1.63;;;;;;;19.48;37.99;100221.31;16118047;19;130211;-48
2023/03/24 09:18:07;;;;;;;9.75;1.92;;;;;;;19.48;37.80;100215.78;16121810;19;130757;-51
2023/03/24 09:23:30;;;;;;;16.42;1.90;;;;;;;19.42;37.70;100217.69;16118769;19;129555;-42
2023/03/24 09:28:52;;;;;;;8.23;2.03;;;;;;;19.42;37.95;100222.41;16119955;19;129585;-48
2023/03/24 09:34:14;;;;;;;10.00;1.90;;;;;;;19.42;37.88;100226.00;16113756;19;131945;-44
2023/03/24 09:39:36;;;;;;;10.15;1.80;;;;;;;19.45;38.27;100227.41;16118231;19;129679;-44
2023/03/24 09:45:03;;;;;;;13.02;2.10;;;;;;;19.47;38.30;100225.19;16118378;19;129192;-45
2023/03/24 09:50:32;;;;;;;11.10;1.95;;;;;;;19.49;37.89;100234.09;16114893;19;130999;-47
2023/03/24 09:55:54;;;;;;;10.55;1.92;;;;;;;19.51;37.96;100232.69;16118703;19;131128;-46
2023/03/24 10:01:16;;;;;;;7.78;2.05;;;;;;;19.51;37.88;100238.25;16118193;19;131163;-43
2023/03/24 10:06:43;;;;;;;9.63;1.88;;;;;;;19.53;38.39;100243.56;16116583;19;130144;-44
2023/03/24 10:12:26;;;;;;;8.95;1.75;;;;;;;19.57;38.09;100241.88;16118036;19;129234;-45
2023/03/24 10:18:21;;;;;;;8.60;1.80;;;;;;;19.64;38.32;100228.63;16117228;19;129565;-45
2023/03/24 10:24:13;;;;;;;11.00;2.03;;;;;;;19.68;38.49;100246.41;16116322;19;129693;-45
2023/03/24 10:29:37;;;;;;;7.28;1.67;;;;;;;19.70;38.53;100232.25;16114116;19;129700;-43
2023/03/24 10:35:08;;;;;;;5.50;1.40;;;;;;;19.73;38.22;100233.66;16115831;19;129471;-46
2023/03/24 10:40:32;;;;;;;7.90;1.85;;;;;;;19.75;38.10;100237.00;16114250;19;129677;-42
2023/03/24 10:45:56;;;;;;;5.93;1.58;;;;;;;19.75;38.26;100234.22;16117078;19;129282;-43
2023/03/24 10:51:30;;;;;;;9.30;1.50;;;;;;;19.75;38.04;100220.34;16114117;19;130756;-42
2023/03/24 10:56:59;;;;;;;5.20;1.63;;;;;;;19.73;38.25;100222.53;16114278;19;130882;-45
2023/03/24 11:02:23;;;;;;;6.30;1.40;;;;;;;19.68;38.29;100215.88;16115402;19;130678;-43
2023/03/24 11:07:48;;;;;;;7.07;1.58;;;;;;;19.65;38.01;100227.53;16114223;19;129746;-48
2023/03/24 11:13:25;;;;;;;6.13;1.50;;;;;;;19.62;38.37;100221.69;16112756;19;130868;-46
2023/03/24 11:19:02;;;;;;;7.70;1.80;;;;;;;19.58;38.25;100223.31;16113041;19;130539;-44
2023/03/24 11:24:26;;;;;;;6.80;1.48;;;;;;;19.52;38.68;100228.00;16112747;19;130311;-44
2023/03/24 11:29:52;;;;;;;7.07;1.63;;;;;;;19.48;38.62;100213.00;16112818;19;129419;-44
2023/03/24 11:35:17;;;;;;;7.30;1.35;;;;;;;19.41;38.70;100220.72;16108782;19;130910;-44
2023/03/24 11:40:52;;;;;;;5.80;1.90;;;;;;;19.44;38.88;100243.22;16110660;19;133560;-43
2023/03/24 11:46:19;;;;;;;7.53;1.55;;;;;;;19.49;38.27;100250.72;16111550;19;129249;-46
2023/03/24 11:51:45;;;;;;;5.10;1.15;;;;;;;19.57;38.30;100275.19;16108303;19;131252;-45
2023/03/24 11:57:13;;;;;;;6.80;1.38;;;;;;;19.61;38.55;100295.75;16110361;19;129964;-42
2023/03/24 12:02:40;;;;;;;6.88;1.42;;;;;;;19.71;38.62;100310.78;16108720;19;133454;-42
2023/03/24 12:08:39;;;;;;;9.80;1.70;;;;;;;19.76;38.25;100299.72;16108508;19;130275;-42
2023/03/24 12:14:03;;;;;;;13.48;1.83;;;;;;;19.80;38.78;100306.41;16118628;19;129284;-42
2023/03/24 12:19:34;;;;;;;19.27;2.70;;;;;;;19.88;38.81;100303.13;16123263;19;131938;-44
2023/03/24 12:25:13;;;;;;;10.55;1.70;;;;;;;19.97;38.99;100268.16;16124011;19;131387;-42
2023/03/24 12:30:54;;;;;;;19.30;1.95;;;;;;;20.03;38.87;100255.16;16123149;19;130109;-42
2023/03/24 12:36:18;;;;;;;11.23;1.90;;;;;;;20.05;39.34;100258.50;16127124;19;129416;-46
2023/03/24 12:41:53;;;;;;;10.35;1.38;;;;;;;20.07;39.30;100255.44;16125667;19;131235;-46
2023/03/24 12:47:33;;;;;;;12.55;2.03;;;;;;;20.07;39.92;100253.53;16126876;19;133415;-43
2023/03/24 12:53:25;;;;;;;5.65;1.10;;;;;;;20.03;39.91;100243.25;16124678;19;130382;-44
2023/03/24 12:58:50;;;;;;;7.65;1.35;;;;;;;19.94;39.83;100270.66;16119973;19;129578;-44
2023/03/24 13:04:24;;;;;;;10.57;1.27;;;;;;;19.89;40.10;100243.72;16123232;19;130788;-43
2023/03/24 13:10:05;;;;;;;6.90;1.65;;;;;;;19.86;40.47;100235.91;16120925;19;129704;-42
2023/03/24 13:15:42;;;;;;;6.13;1.40;;;;;;;19.84;40.68;100238.97;16122802;19;130951;-45
2023/03/24 13:21:16;;;;;;;8.52;1.33;;;;;;;19.82;40.78;100237.56;16120853;19;129664;-42
2023/03/24 13:26:59;;;;;;;5.30;0.95;;;;;;;19.79;40.72;100225.06;16118305;19;129750;-47
2023/03/24 13:32:23;;;;;;;5.90;1.20;;;;;;;19.75;40.57;100231.44;16105087;19;131364;-43
2023/03/24 13:38:00;;;;;;;9.55;1.30;;;;;;;19.68;40.69;100237.22;16109912;19;130766;-45
2023/03/24 13:43:24;;;;;;;6.03;1.05;;;;;;;19.64;40.65;100236.94;16113407;19;131435;-45
2023/03/24 13:48:51;;;;;;;22.98;2.00;;;;;;;19.62;40.68;100227.22;16117416;19;130996;-42
2023/03/24 13:54:26;;;;;;;18.38;1.13;;;;;;;19.62;40.92;100210.59;16118368;19;129936;-42
2023/03/24 14:00:10;;;;;;;20.30;2.05;;;;;;;19.60;40.75;100221.13;16111999;19;131195;-48
2023/03/24 14:05:58;;;;;;;15.80;2.00;;;;;;;19.59;40.52;100217.47;16113866;19;129769;-45
2023/03/24 14:11:48;;;;;;;12.55;1.80;;;;;;;19.57;40.90;100205.81;16114351;19;131305;-42
2023/03/24 14:17:12;;;;;;;12.35;1.35;;;;;;;19.55;40.90;100204.44;16118891;19;130309;-47
2023/03/24 14:22:39;;;;;;;12.30;1.50;;;;;;;19.52;41.26;100201.09;16117177;19;129408;-43
2023/03/24 14:28:28;;;;;;;9.63;1.42;;;;;;;19.53;40.91;100199.16;16118149;19;130491;-43
2023/03/24 14:34:04;;;;;;;17.63;1.10;;;;;;;19.53;41.55;100199.16;16114879;19;130828;-44
2023/03/24 14:39:40;;;;;;;12.25;1.95;;;;;;;19.55;41.06;100191.41;16115620;19;131238;-43
2023/03/24 14:45:25;;;;;;;10.07;1.48;;;;;;;19.56;41.47;100195.00;16114442;19;129739;-43
2023/03/24 14:50:48;;;;;;;5.88;1.23;;;;;;;19.55;41.46;100198.88;16113502;19;129694;-42
2023/03/24 14:56:15;;;;;;;4.93;1.13;;;;;;;19.58;41.12;100203.91;16113304;19;129227;-42
2023/03/24 15:01:44;;;;;;;4.13;0.90;;;;;;;19.58;41.15;100193.63;16115680;19;129693;-43
2023/03/24 15:07:13;;;;;;;7.55;1.10;;;;;;;19.56;41.06;100184.75;16110581;19;130012;-46
2023/03/24 15:12:35;;;;;;;7.55;1.10;;;;;;;19.53;40.86;100179.75;16111568;19;130200;-43
2023/03/24 15:17:57;;;;;;;7.32;1.27;;;;;;;19.51;41.43;100181.94;16112866;19;131706;-44
2023/03/24 15:23:22;;;;;;;6.03;1.05;;;;;;;19.51;41.57;100173.63;16114370;19;129565;-45
2023/03/24 15:28:44;;;;;;;9.35;1.00;;;;;;;19.49;41.76;100176.69;16112845;19;129849;-43
2023/03/24 15:34:26;;;;;;;5.05;1.05;;;;;;;19.52;42.36;100162.25;16110467;19;129731;-42
2023/03/24 15:39:52;;;;;;;7.45;1.13;;;;;;;19.51;42.19;100160.56;16111019;19;129886;-42
2023/03/24 15:45:42;;;;;;;5.15;0.82;;;;;;;19.49;42.59;100145.31;16113197;19;129759;-44
2023/03/24 15:51:11;;;;;;;9.88;1.30;;;;;;;19.50;42.22;100141.44;16123190;19;129373;-44
2023/03/24 15:56:35;;;;;;;5.72;1.60;;;;;;;19.47;42.58;100123.41;16123014;19;131736;-46
2023/03/24 16:01:57;;;;;;;6.28;1.48;;;;;;;19.46;42.77;100124.50;16126333;19;129504;-43
2023/03/24 16:07:28;;;;;;;8.68;1.50;;;;;;;19.45;42.78;100128.38;16124224;19;129422;-44
2023/03/24 16:12:50;;;;;;;10.02;2.03;;;;;;;19.42;42.80;100128.09;16121046;19;130663;-45
2023/03/24 16:18:23;;;;;;;9.15;2.00;;;;;;;19.40;42.71;100124.75;16124951;19;129499;-43
2023/03/24 16:23:46;;;;;;;13.65;2.42;;;;;;;19.37;42.31;100131.69;16125593;19;130533;-42
2023/03/24 16:29:22;;;;;;;10.55;1.77;;;;;;;19.37;42.65;100121.41;16124183;19;130750;-42
2023/03/24 16:34:44;;;;;;;9.50;1.83;;;;;;;19.34;42.84;100116.41;16117355;19;130178;-42
2023/03/24 16:40:20;;;;;;;9.40;1.85;;;;;;;19.41;42.70;100143.06;16118577;19;129952;-41
2023/03/24 16:45:42;;;;;;;6.28;1.58;;;;;;;19.40;42.26;100136.66;16120127;19;129442;-42
2023/03/24 16:51:04;;;;;;;7.78;1.50;;;;;;;19.48;42.17;100140.88;16118412;19;129963;-44
2023/03/24 16:56:26;;;;;;;13.80;1.80;;;;;;;19.55;42.69;100144.25;16116739;19;129457;-42
2023/03/24 17:01:50;;;;;;;9.80;1.48;;;;;;;19.62;42.73;100155.91;16117302;19;129807;-43
2023/03/24 17:07:12;;;;;;;10.00;1.87;;;;;;;19.68;42.48;100142.88;16120879;19;130834;-41
2023/03/24 17:12:35;;;;;;;8.27;1.30;;;;;;;19.75;42.11;100148.19;16120428;19;130359;-43
2023/03/24 17:17:56;;;;;;;8.88;1.65;;;;;;;19.78;42.36;100151.22;16121204;19;129106;-45
2023/03/24 17:23:19;;;;;;;9.88;1.83;;;;;;;19.80;42.33;100179.56;16118205;19;129490;-45
2023/03/24 17:28:41;;;;;;;10.80;2.10;;;;;;;19.81;42.54;100163.75;16119239;19;130526;-45
2023/03/24 17:34:03;;;;;;;11.32;1.45;;;;;;;19.80;42.43;100170.41;16120548;19;130039;-44
2023/03/24 17:39:41;;;;;;;6.88;1.20;;;;;;;19.93;42.01;100169.91;16120521;19;129032;-42
2023/03/24 17:45:06;;;;;;;9.45;1.58;;;;;;;20.09;41.82;100172.72;16120656;19;129387;-43
2023/03/24 17:50:29;;;;;;;6.53;1.10;;;;;;;20.21;41.74;100194.69;16118908;19;130873;-42
2023/03/24 17:55:53;;;;;;;9.70;1.40;;;;;;;20.29;41.41;100177.47;16118573;19;129693;-45
2023/03/24 18:01:17;;;;;;;3.20;0.98;;;;;;;20.30;41.76;100179.16;16119222;19;130763;-41
2023/03/24 18:06:40;;;;;;;5.97;1.13;;;;;;;20.27;41.36;100183.31;16119155;19;129762;-46
2023/03/24 18:12:03;;;;;;;10.02;1.15;;;;;;;20.22;41.55;100191.63;16116210;19;131968;-42
2023/03/24 18:17:28;;;;;;;10.32;1.35;;;;;;;20.17;41.62;100186.09;16118142;19;129540;-44
2023/03/24 18:22:50;;;;;;;6.13;1.02;;;;;;;20.10;41.92;100193.81;16116566;19;129672;-41
2023/03/24 18:28:12;;;;;;;5.15;1.15;;;;;;;19.99;41.59;100201.28;16110251;19;131492;-43
2023/03/24 18:33:34;;;;;;;6.85;0.98;;;;;;;19.92;41.92;100198.75;16113897;19;132188;-43
2023/03/24 18:38:58;;;;;;;10.20;1.15;;;;;;;19.89;41.84;100206.78;16110618;19;130925;-42
2023/03/24 18:44:20;;;;;;;2.43;0.70;;;;;;;19.83;42.08;100214.25;16115490;19;130813;-42
2023/03/24 18:49:42;;;;;;;4.68;1.00;;;;;;;19.80;42.14;100212.03;16109416;19;129723;-41
2023/03/24 18:55:06;;;;;;;8.25;1.33;;;;;;;19.82;42.03;100212.56;16114451;19;131387;-41
2023/03/24 19:00:28;;;;;;;4.97;0.60;;;;;;;19.86;42.29;100204.56;16106983;19;129651;-42
2023/03/24 19:05:53;;;;;;;11.82;1.10;;;;;;;19.91;41.45;100201.78;16114462;19;129444;-41
2023/03/24 19:11:15;;;;;;;12.27;1.63;;;;;;;19.96;40.96;100199.88;16115435;19;129624;-43
2023/03/24 19:16:37;;;;;;;21.92;2.05;;;;;;;20.02;40.92;100195.19;16115221;19;129947;-44
2023/03/24 19:21:59;;;;;;;19.80;1.95;;;;;;;20.09;40.48;100186.59;16121470;19;129048;-40
2023/03/24 19:27:22;;;;;;;13.27;1.30;;;;;;;20.17;40.62;100202.75;16130140;19;130386;-42
2023/03/24 19:32:45;;;;;;;16.48;1.33;;;;;;;20.23;40.56;100186.91;16130134;19;130421;-41
2023/03/24 19:38:07;;;;;;;18.50;1.88;;;;;;;20.31;40.36;100199.44;16132985;19;129253;-45
2023/03/24 19:43:29;;;;;;;13.88;1.25;;;;;;;20.35;40.25;100197.75;16129896;19;130377;-48
2023/03/24 19:48:51;;;;;;;13.63;1.38;;;;;;;20.37;40.44;100199.13;16129082;19;131038;-49
2023/03/24 19:54:13;;;;;;;15.60;1.20;;;;;;;20.39;40.34;100190.53;16128381;19;129869;-46
2023/03/24 19:59:35;;;;;;;17.38;1.13;;;;;;;20.50;40.42;100191.38;16126852;19;129813;-50
2023/03/24 20:04:57;;;;;;;6.10;1.23;;;;;;;20.72;40.19;100194.72;16126588;19;130749;-51
2023/03/24 20:10:20;;;;;;;6.50;1.08;;;;;;;21.08;39.47;100193.88;16127132;19;129551;-48
2023/03/24 20:15:45;;;;;;;8.40;1.00;;;;;;;21.43;39.46;100185.72;16122008;19;129813;-48
2023/03/24 20:21:08;;;;;;;6.83;1.00;;;;;;;21.61;39.36;100185.13;16122788;19;130617;-51
2023/03/24 20:26:30;;;;;;;5.97;0.80;;;;;;;21.86;38.88;100199.22;16121020;19;130173;-50
2023/03/24 20:31:51;;;;;;;6.78;0.95;;;;;;;22.03;38.77;100208.03;16123480;19;129420;-48
2023/03/24 20:37:14;;;;;;;11.85;1.52;;;;;;;22.10;38.87;100228.06;16125776;19;129317;-52
2023/03/24 20:42:36;;;;;;;12.60;1.27;;;;;;;22.08;38.94;100227.50;16121926;19;129680;-47
2023/03/24 20:47:58;;;;;;;8.65;1.20;;;;;;;22.02;38.91;100230.59;16127341;19;129792;-48
2023/03/24 20:53:21;;;;;;;6.28;1.17;;;;;;;21.92;39.14;100195.28;16126229;19;133451;-51
2023/03/24 20:58:43;;;;;;;5.13;1.10;;;;;;;21.75;39.02;100210.41;16122961;19;130108;-51
2023/03/24 21:04:05;;;;;;;15.95;1.35;;;;;;;21.59;39.11;100204.06;16123266;19;129767;-50
2023/03/24 21:09:31;;;;;;;8.23;0.95;;;;;;;21.47;39.33;100207.13;16120655;19;130035;-44
2023/03/24 21:14:53;;;;;;;7.35;0.80;;;;;;;21.36;39.45;100203.53;16123060;19;130065;-48
2023/03/24 21:20:15;;;;;;;15.77;1.73;;;;;;;21.25;39.41;100220.56;16119434;19;129227;-48
2023/03/24 21:25:37;;;;;;;8.15;1.00;;;;;;;21.15;39.49;100213.91;16119975;19;131020;-49
2023/03/24 21:31:06;;;;;;;11.57;1.33;;;;;;;21.08;40.16;100210.56;16118465;19;131232;-47
2023/03/24 21:36:29;;;;;;;13.25;1.58;;;;;;;20.98;40.29;100213.34;16119073;19;129665;-50
2023/03/24 21:41:51;;;;;;;13.45;1.20;;;;;;;20.92;40.23;100209.75;16119006;19;130105;-50
2023/03/24 21:47:17;;;;;;;9.27;1.88;;;;;;;20.85;40.20;100210.03;16120051;19;129402;-49
2023/03/24 21:52:45;;;;;;;9.10;0.98;;;;;;;20.79;40.36;100211.16;16119960;19;129693;-46
2023/03/24 21:58:08;;;;;;;10.20;1.17;;;;;;;20.71;40.61;100192.22;16119703;19;129564;-50
2023/03/24 22:03:33;;;;;;;9.30;1.10;;;;;;;20.66;40.42;100186.69;16117941;19;129973;-49
2023/03/24 22:08:57;;;;;;;16.83;1.30;;;;;;;20.57;40.13;100198.31;16114692;19;129655;-46
2023/03/24 22:14:19;;;;;;;13.48;1.08;;;;;;;20.46;40.30;100196.66;16115953;19;130913;-48
2023/03/24 22:19:42;;;;;;;8.88;1.60;;;;;;;20.36;40.31;100199.44;16112064;19;131272;-52
2023/03/24 22:25:06;;;;;;;9.75;1.17;;;;;;;20.26;40.75;100192.75;16115439;19;130055;-48
2023/03/24 22:30:28;;;;;;;7.65;1.38;;;;;;;20.17;40.81;100188.84;16115109;19;129526;-48
2023/03/24 22:35:54;;;;;;;8.95;1.38;;;;;;;20.11;40.84;100196.34;16113751;19;132213;-49
2023/03/24 22:41:16;;;;;;;6.18;1.00;;;;;;;20.06;40.84;100201.06;16114381;19;134608;-49
2023/03/24 22:46:38;;;;;;;6.55;1.08;;;;;;;19.99;40.67;100207.69;16112513;19;129523;-50
2023/03/24 22:52:00;;;;;;;4.47;0.93;;;;;;;19.95;40.60;100202.91;16111543;19;129897;-49
2023/03/24 22:57:22;;;;;;;5.72;1.13;;;;;;;19.90;40.66;100202.91;16106591;19;129669;-48
2023/03/24 23:02:43;;;;;;;2.53;0.70;;;;;;;19.86;40.39;100219.25;16111432;19;131636;-47
2023/03/24 23:08:06;;;;;;;8.52;1.00;;;;;;;19.81;40.79;100222.88;16104551;19;130442;-49
2023/03/24 23:13:29;;;;;;;7.43;0.70;;;;;;;19.77;40.31;100212.56;16108500;19;130524;-47
2023/03/24 23:18:51;;;;;;;5.55;1.10;;;;;;;19.71;40.33;100219.19;16109443;19;130886;-41
2023/03/24 23:24:13;;;;;;;3.28;0.63;;;;;;;19.65;40.31;100210.88;16110545;19;129464;-45
2023/03/24 23:29:39;;;;;;;15.73;1.02;;;;;;;19.63;40.25;100223.34;16108505;19;131351;-52
2023/03/24 23:35:02;;;;;;;8.48;0.93;;;;;;;19.59;40.03;100217.47;16111784;19;130326;-48
2023/03/24 23:40:24;;;;;;;6.05;1.13;;;;;;;19.55;40.02;100209.97;16108715;19;129733;-48
2023/03/24 23:45:46;;;;;;;9.10;1.15;;;;;;;19.52;39.94;100222.47;16110427;19;129795;-51
2023/03/24 23:51:08;;;;;;;2.95;0.80;;;;;;;19.48;40.08;100227.72;16108971;19;130415;-45
2023/03/24 23:56:35;;;;;;;6.90;1.30;;;;;;;19.48;40.31;100232.41;16106755;19;129387;-47
